< Typhoon 201402 2014 Season Typhoon 201404 >
Typhoon 201403 (FAXAI)
General InformationTrack Information on Google MapsDetailed Wind InformationForecast History on Google MapsAccess Analytics MapList of All Images || NewsDisaster Info.WeblogTrackbackTyphoon FrontTwiphoonTyphoon Now!Typhoon ImaginationDisaster Info. XMLResourceGoogle EarthGE AnimationAtom FeedGeoJSON
Detalied Best Track (Time Zone = UTC)
Year Month Day Hour Lat. Long. Pressure (hPa) Wind (kt) Class Image Chart
2014 2 27 12 8.7 147.8 1004 0 2 Image Chart
2014 2 27 18 8.6 147.8 1002 0 2 Image Chart
2014 2 28 00 8.5 148.0 1004 0 2 Image Chart
2014 2 28 06 8.5 148.3 1002 0 2 Image Chart
2014 2 28 12 8.6 148.5 1000 35 3 Image Chart
2014 2 28 18 8.8 149.0 1000 35 3 Image Chart
2014 3 1 00 8.9 149.1 998 35 3 Image Chart
2014 3 1 06 9.1 149.1 996 35 3 Image Chart
2014 3 1 12 9.3 149.2 994 40 3 Image Chart
2014 3 1 18 9.2 149.0 994 40 3 Image Chart
2014 3 2 00 9.2 148.8 994 40 3 Image Chart
2014 3 2 06 9.3 148.5 994 40 3 Image Chart
2014 3 2 12 9.5 148.8 994 40 3 Image Chart
2014 3 2 18 10.0 149.2 992 40 3 Image Chart
2014 3 3 00 10.9 149.7 990 45 3 Image Chart
2014 3 3 06 12.2 149.2 985 50 4 Image Chart
2014 3 3 12 12.9 149.3 985 50 4 Image Chart
2014 3 3 18 13.9 149.5 980 55 4 Image Chart
2014 3 4 00 14.7 149.9 980 55 4 Image Chart
2014 3 4 06 16.1 150.6 980 60 4 Image Chart
2014 3 4 12 17.5 151.2 975 65 5 Image Chart
2014 3 4 18 18.8 151.7 975 65 5 Image Chart
2014 3 5 00 20.0 152.5 980 60 4 Image Chart
2014 3 5 06 21.2 153.5 985 50 4 Image Chart
2014 3 5 12 21.9 154.1 990 45 3 Image Chart
2014 3 5 18 22.2 155.0 994 0 6 Image Chart
2014 3 6 00 23.0 156.0 998 0 6 Image Chart
2014 3 6 06 23.3 157.3 996 0 6 Image Chart
2014 3 6 12 23.6 158.8 1000 0 6 Image Chart
2014 3 6 18 23.2 160.1 1000 0 6 Image Chart
2014 3 7 00 22.7 160.8 1004 0 6 Image Chart
2014 3 7 06 23.2 161.3 1004 0 6 Image Chart
2014 3 7 12 23.5 162.3 1004 0 6 Image Chart
2014 3 7 18 24.1 163.3 1004 0 6 Image Chart
2014 3 8 00 25.4 165.1 1006 0 6 Image Chart
2014 3 8 06 26.2 168.0 1008 0 6 Image Chart
Japan Meteorological Agency Best Track Data | Correction Date : 2014-03-18
< Typhoon 201402 2014 Season Typhoon 201404 >

Help